createdAt,value
2018-12-13T00:02:21.778Z,22.53
2018-12-13T00:04:52.640Z,21.27
2018-12-13T00:07:23.412Z,21.37
2018-12-13T00:09:55.355Z,24.97
2018-12-13T00:12:25.967Z,24.20
2018-12-13T00:14:56.905Z,22.37
2018-12-13T00:17:27.570Z,20.90
2018-12-13T00:19:58.490Z,26.40
2018-12-13T00:22:29.498Z,20.67
2018-12-13T00:25:00.345Z,20.87
2018-12-13T00:27:31.422Z,21.87
2018-12-13T00:30:03.281Z,22.57
2018-12-13T00:32:33.967Z,21.90
2018-12-13T00:35:04.480Z,22.30
2018-12-13T00:37:35.182Z,19.43
2018-12-13T00:40:06.166Z,21.97
2018-12-13T00:42:37.094Z,20.43
2018-12-13T00:45:08.205Z,21.53
2018-12-13T00:47:39.033Z,22.90
2018-12-13T00:50:10.091Z,21.13
2018-12-13T00:52:41.136Z,18.93
2018-12-13T00:55:12.073Z,17.93
2018-12-13T00:57:42.790Z,16.53
2018-12-13T01:00:14.039Z,19.17
2018-12-13T01:02:44.928Z,16.73
2018-12-13T01:05:16.147Z,17.90
2018-12-13T01:07:46.735Z,13.40
2018-12-13T01:10:18.955Z,16.53
2018-12-13T01:12:49.813Z,13.73
2018-12-13T01:15:20.739Z,13.93
2018-12-13T01:17:51.351Z,13.33
2018-12-13T01:20:22.533Z,16.40
2018-12-13T01:22:53.246Z,16.67
2018-12-13T01:25:24.236Z,15.80
2018-12-13T01:27:55.171Z,17.20
2018-12-13T01:30:25.805Z,17.53
2018-12-13T01:32:56.569Z,15.30
2018-12-13T01:35:27.296Z,14.67
2018-12-13T01:37:57.910Z,14.13
2018-12-13T01:40:28.616Z,13.90
2018-12-13T01:42:59.611Z,14.07
2018-12-13T01:45:30.513Z,15.93
2018-12-13T01:48:01.224Z,14.43
2018-12-13T01:50:32.282Z,17.10
2018-12-13T01:53:03.879Z,16.77
2018-12-13T01:55:34.538Z,13.90
2018-12-13T01:58:05.729Z,15.23
2018-12-13T02:00:37.387Z,16.47
2018-12-13T02:03:08.629Z,16.83
2018-12-13T02:05:40.741Z,16.87
2018-12-13T02:08:11.254Z,18.60
2018-12-13T02:10:44.083Z,19.03
2018-12-13T02:13:15.396Z,17.17
2018-12-13T02:15:47.003Z,17.30
2018-12-13T02:18:18.534Z,20.00
2018-12-13T02:20:49.602Z,19.00
2018-12-13T02:23:21.712Z,16.13
2018-12-13T02:25:52.755Z,18.83
2018-12-13T02:28:24.104Z,15.73
2018-12-13T02:30:55.935Z,18.10
2018-12-13T02:33:27.819Z,15.80
2018-12-13T02:35:59.602Z,19.77
2018-12-13T02:38:31.947Z,17.53
2018-12-13T02:41:03.599Z,19.77
2018-12-13T02:43:34.862Z,16.90
2018-12-13T02:46:06.142Z,16.93
2018-12-13T02:48:37.014Z,18.83
2018-12-13T02:51:08.008Z,16.90
2018-12-13T02:53:39.285Z,18.30
2018-12-13T02:56:10.980Z,17.67
2018-12-13T02:58:41.670Z,16.93
2018-12-13T03:01:12.686Z,18.30
2018-12-13T03:03:44.183Z,17.77
2018-12-13T03:06:14.592Z,18.50
2018-12-13T03:08:46.557Z,18.00
2018-12-13T03:11:17.837Z,18.80
2018-12-13T03:13:49.253Z,18.57
2018-12-13T03:16:20.150Z,20.33
2018-12-13T03:18:52.008Z,23.70
2018-12-13T03:21:23.339Z,22.47
2018-12-13T03:23:54.916Z,23.47
2018-12-13T03:26:25.891Z,25.37
2018-12-13T03:28:57.403Z,26.37
2018-12-13T03:31:28.965Z,25.83
2018-12-13T03:33:59.989Z,24.83
2018-12-13T03:36:31.034Z,23.50
2018-12-13T03:39:02.298Z,35.63
2018-12-13T03:41:33.318Z,39.03
2018-12-13T03:44:04.831Z,33.63
2018-12-13T03:46:36.278Z,37.67
2018-12-13T03:49:08.952Z,34.10
2018-12-13T03:51:40.784Z,31.63
2018-12-13T03:54:11.904Z,32.10
2018-12-13T03:56:43.130Z,29.47
2018-12-13T03:59:14.755Z,32.03
2018-12-13T04:01:45.057Z,35.57
2018-12-13T04:04:15.880Z,29.00
2018-12-13T04:06:47.167Z,26.10
2018-12-13T04:09:18.447Z,32.83
2018-12-13T04:11:50.209Z,32.77
2018-12-13T04:14:21.261Z,27.60
2018-12-13T04:16:52.662Z,30.50
2018-12-13T04:19:24.286Z,29.67
2018-12-13T04:21:56.247Z,29.00
2018-12-13T04:24:28.146Z,28.73
2018-12-13T04:26:59.526Z,26.97
2018-12-13T04:29:31.280Z,28.37
2018-12-13T04:32:02.827Z,30.80
2018-12-13T04:34:34.233Z,29.33
2018-12-13T04:37:05.422Z,31.83
2018-12-13T04:39:36.867Z,25.97
2018-12-13T04:42:07.984Z,26.97
2018-12-13T04:44:38.651Z,30.57
2018-12-13T04:47:08.911Z,25.33
2018-12-13T04:49:39.266Z,23.37
2018-12-13T04:52:09.345Z,29.37
2018-12-13T04:54:39.948Z,26.23
2018-12-13T04:57:10.550Z,28.47
2018-12-13T04:59:41.125Z,27.13
2018-12-13T05:02:12.230Z,27.07
2018-12-13T05:04:43.621Z,24.97
2018-12-13T05:07:15.158Z,24.73
2018-12-13T05:09:47.204Z,29.63
2018-12-13T05:12:18.386Z,25.30
2018-12-13T05:14:49.134Z,27.70
2018-12-13T05:17:21.323Z,21.57
2018-12-13T05:19:53.662Z,25.17
2018-12-13T05:22:25.840Z,25.33
2018-12-13T05:24:56.774Z,26.63
2018-12-13T05:27:27.758Z,26.17
2018-12-13T05:29:59.500Z,21.77
2018-12-13T05:32:31.285Z,21.87
2018-12-13T05:35:02.539Z,21.80
2018-12-13T05:37:34.061Z,23.80
2018-12-13T05:40:05.807Z,26.43
2018-12-13T05:42:37.623Z,26.10
2018-12-13T05:45:08.320Z,24.53
2018-12-13T05:47:39.401Z,25.43
2018-12-13T05:50:10.408Z,26.50
2018-12-13T05:52:42.154Z,25.43
2018-12-13T05:55:13.973Z,26.00
2018-12-13T05:57:45.295Z,21.50
2018-12-13T06:00:17.038Z,29.40
2018-12-13T06:02:48.507Z,31.00
2018-12-13T06:05:20.015Z,21.70
2018-12-13T06:07:54.944Z,20.17
2018-12-13T06:10:24.138Z,26.63
2018-12-13T06:12:55.270Z,17.07
2018-12-13T06:15:26.372Z,13.80
2018-12-13T06:17:57.074Z,18.80
2018-12-13T06:20:28.010Z,19.03
2018-12-13T06:22:59.499Z,17.63
2018-12-13T06:25:31.185Z,16.97
2018-12-13T06:28:02.651Z,15.77
2018-12-13T06:30:34.579Z,15.43
2018-12-13T06:33:05.842Z,14.03
2018-12-13T06:35:37.142Z,16.50
2018-12-13T06:38:09.780Z,16.23
2018-12-13T06:40:41.535Z,15.20
2018-12-13T06:43:12.892Z,16.07
2018-12-13T06:45:44.181Z,19.60
2018-12-13T06:48:15.519Z,47.17
2018-12-13T06:50:46.699Z,22.60
2018-12-13T06:53:17.873Z,16.13
2018-12-13T06:55:49.464Z,18.93
2018-12-13T06:58:20.450Z,18.47
2018-12-13T07:00:52.016Z,17.93
2018-12-13T07:03:23.073Z,20.77
2018-12-13T07:05:54.469Z,17.00
2018-12-13T07:08:25.899Z,20.80
2018-12-13T07:10:57.614Z,16.33
2018-12-13T07:13:28.923Z,18.83
2018-12-13T07:15:58.816Z,20.70
2018-12-13T07:18:28.730Z,20.87
2018-12-13T07:20:58.764Z,18.87
2018-12-13T07:23:29.147Z,19.67
2018-12-13T07:25:59.631Z,17.33
2018-12-13T07:28:30.395Z,17.87
2018-12-13T07:31:00.780Z,15.10
2018-12-13T07:33:30.881Z,17.10
2018-12-13T07:36:00.851Z,16.63
2018-12-13T07:38:31.536Z,16.57
2018-12-13T07:41:02.226Z,19.57
2018-12-13T07:43:33.618Z,18.93
2018-12-13T07:46:03.396Z,18.13
2018-12-13T07:48:34.056Z,13.07
2018-12-13T07:51:04.748Z,15.50
2018-12-13T07:53:35.618Z,14.43
2018-12-13T07:56:05.604Z,11.93
2018-12-13T07:58:35.757Z,15.50
2018-12-13T08:01:06.938Z,12.43
2018-12-13T08:03:37.702Z,17.93
2018-12-13T08:06:08.497Z,18.73
2018-12-13T08:08:38.941Z,18.63
2018-12-13T08:11:10.053Z,19.83
2018-12-13T08:13:41.075Z,21.00
2018-12-13T08:16:11.488Z,21.23
2018-12-13T08:18:42.224Z,21.20
2018-12-13T08:21:13.273Z,20.03
2018-12-13T08:23:44.148Z,18.47
2018-12-13T08:26:15.598Z,20.50
2018-12-13T08:28:46.382Z,19.17
2018-12-13T08:31:17.083Z,18.13
2018-12-13T08:33:47.585Z,17.40
2018-12-13T08:36:18.788Z,18.07
2018-12-13T08:38:49.455Z,17.50
2018-12-13T08:41:20.468Z,12.63
2018-12-13T08:43:51.162Z,17.63
2018-12-13T08:46:21.727Z,16.47
2018-12-13T08:48:52.649Z,13.97
2018-12-13T08:51:22.650Z,16.47
2018-12-13T08:53:53.215Z,14.87
2018-12-13T08:56:23.759Z,14.37
2018-12-13T08:58:54.233Z,14.93
2018-12-13T09:01:24.811Z,13.60
2018-12-13T09:03:55.390Z,13.13
2018-12-13T09:06:25.866Z,13.40
2018-12-13T09:08:56.628Z,12.93
2018-12-13T09:11:27.621Z,12.13
2018-12-13T09:13:58.426Z,14.77
2018-12-13T09:16:31.673Z,13.07
2018-12-13T09:19:01.905Z,11.63
2018-12-13T09:21:33.209Z,11.63
2018-12-13T09:24:03.949Z,11.30
2018-12-13T09:26:33.836Z,8.13
2018-12-13T09:29:04.534Z,14.67
2018-12-13T09:31:34.883Z,8.73
2018-12-13T09:34:05.926Z,14.40
2018-12-13T09:36:35.925Z,13.27
2018-12-13T09:39:08.132Z,8.47
2018-12-13T09:41:38.603Z,6.40
2018-12-13T09:44:13.022Z,12.07
2018-12-13T09:46:44.168Z,7.13
2018-12-13T09:49:14.616Z,9.30
2018-12-13T09:51:45.792Z,9.80
2018-12-13T09:54:16.603Z,7.57
2018-12-13T09:56:48.076Z,8.37
2018-12-13T09:59:18.556Z,7.03
2018-12-13T10:01:48.989Z,8.03
2018-12-13T10:04:19.606Z,7.27
2018-12-13T10:06:50.104Z,7.50
2018-12-13T10:09:21.198Z,7.17
2018-12-13T10:11:51.798Z,6.30
2018-12-13T10:14:22.243Z,7.00
2018-12-13T10:16:52.642Z,6.30
2018-12-13T10:19:22.834Z,6.40
2018-12-13T10:21:54.819Z,9.40
2018-12-13T10:24:26.003Z,5.30
2018-12-13T10:26:56.107Z,5.63
2018-12-13T10:29:29.437Z,5.80
2018-12-13T10:32:00.320Z,5.47
2018-12-13T10:34:30.924Z,5.77
2018-12-13T10:37:01.425Z,5.40
2018-12-13T10:39:32.329Z,4.93
2018-12-13T10:42:02.669Z,3.63
2018-12-13T10:44:36.502Z,5.17
2018-12-13T10:47:07.230Z,5.67
2018-12-13T10:49:37.551Z,5.47
2018-12-13T10:52:08.239Z,4.83
2018-12-13T10:54:38.597Z,5.33
2018-12-13T10:57:08.723Z,5.27
2018-12-13T10:59:38.987Z,5.17
2018-12-13T11:02:15.343Z,7.70
2018-12-13T11:04:47.664Z,4.50
2018-12-13T11:07:17.791Z,7.13
2018-12-13T11:09:49.166Z,5.37
2018-12-13T11:12:19.283Z,4.30
2018-12-13T11:14:50.064Z,5.77
2018-12-13T11:17:20.952Z,4.77
2018-12-13T11:19:51.693Z,4.73
2018-12-13T11:22:22.369Z,5.90
2018-12-13T11:24:52.120Z,4.47
2018-12-13T11:27:33.738Z,4.60
2018-12-13T11:30:39.694Z,5.87
2018-12-13T11:33:10.389Z,4.70
2018-12-13T11:35:41.329Z,4.40
2018-12-13T11:38:12.555Z,4.73
2018-12-13T11:40:43.803Z,8.30
2018-12-13T11:43:14.914Z,6.27
2018-12-13T11:45:45.760Z,9.93
2018-12-13T11:48:17.135Z,5.83
2018-12-13T11:50:48.721Z,7.47
2018-12-13T11:53:20.268Z,7.57
2018-12-13T11:55:51.698Z,9.33
2018-12-13T11:58:23.188Z,5.27
2018-12-13T12:00:54.436Z,6.13
2018-12-13T12:03:25.960Z,4.27
2018-12-13T12:05:56.929Z,4.47
2018-12-13T12:08:28.458Z,4.30
2018-12-13T12:10:59.560Z,5.37
2018-12-13T12:13:30.857Z,6.93
2018-12-13T12:16:02.873Z,4.83
2018-12-13T12:18:34.535Z,5.97
2018-12-13T12:21:07.561Z,5.57
2018-12-13T12:23:39.131Z,18.73
2018-12-13T12:26:11.486Z,5.60
2018-12-13T12:28:42.399Z,6.23
2018-12-13T12:31:13.249Z,8.10
2018-12-13T12:33:44.767Z,6.57
2018-12-13T12:36:16.186Z,6.43
2018-12-13T12:38:47.498Z,9.57
2018-12-13T12:41:18.539Z,6.93
2018-12-13T12:43:49.532Z,7.30
2018-12-13T12:46:21.254Z,8.30
2018-12-13T12:48:52.300Z,8.90
2018-12-13T12:51:23.260Z,8.13
2018-12-13T12:53:54.169Z,8.30
2018-12-13T12:56:24.790Z,7.63
2018-12-13T12:58:55.322Z,7.13
2018-12-13T13:01:26.059Z,7.33
2018-12-13T13:03:56.934Z,7.93
2018-12-13T13:06:27.511Z,8.23
2018-12-13T13:08:58.334Z,6.97
2018-12-13T13:11:29.292Z,7.70
2018-12-13T13:13:59.730Z,5.77
2018-12-13T13:16:30.460Z,5.83
2018-12-13T13:19:01.152Z,5.63
2018-12-13T13:21:31.970Z,9.10
2018-12-13T13:24:02.787Z,7.93
2018-12-13T13:26:33.797Z,8.03
2018-12-13T13:29:04.494Z,7.60
2018-12-13T13:31:35.439Z,7.47
2018-12-13T13:34:06.341Z,7.67
2018-12-13T13:36:36.867Z,8.93
2018-12-13T13:39:09.135Z,11.57
2018-12-13T13:41:39.564Z,9.43
2018-12-13T13:44:11.405Z,9.60
2018-12-13T13:46:42.482Z,9.90
2018-12-13T13:49:13.319Z,9.90
2018-12-13T13:51:44.561Z,12.27
2018-12-13T13:54:15.614Z,10.20
2018-12-13T13:56:46.649Z,11.80
2018-12-13T13:59:17.645Z,10.63
2018-12-13T14:01:49.218Z,12.77
2018-12-13T14:04:19.917Z,11.37
2018-12-13T14:06:51.402Z,10.00
2018-12-13T14:09:22.341Z,13.17
2018-12-13T14:11:53.402Z,10.40
2018-12-13T14:14:24.632Z,10.03
2018-12-13T14:16:55.916Z,11.17
2018-12-13T14:19:27.251Z,12.40
2018-12-13T14:21:58.711Z,11.60
2018-12-13T14:24:29.862Z,11.03
2018-12-13T14:27:01.202Z,10.37
2018-12-13T14:29:32.659Z,12.23
2018-12-13T14:32:04.770Z,11.40
2018-12-13T14:34:36.550Z,9.53
2018-12-13T14:37:07.599Z,11.13
2018-12-13T14:39:44.455Z,11.90
2018-12-13T14:42:12.865Z,9.53
2018-12-13T14:44:44.246Z,12.53
2018-12-13T14:47:15.549Z,17.00
2018-12-13T14:49:46.628Z,11.60
2018-12-13T14:52:17.799Z,12.33
2018-12-13T14:54:47.675Z,12.43
2018-12-13T14:57:17.699Z,16.83
2018-12-13T14:59:47.745Z,14.37
2018-12-13T15:02:18.722Z,13.73
2018-12-13T15:04:49.182Z,16.40
2018-12-13T15:07:19.668Z,14.13
2018-12-13T15:09:51.077Z,14.00
2018-12-13T15:12:21.388Z,19.20
2018-12-13T15:14:51.558Z,15.07
2018-12-13T15:17:22.700Z,14.20
2018-12-13T15:19:53.766Z,14.50
2018-12-13T15:22:23.985Z,12.00
2018-12-13T15:24:53.904Z,12.63
2018-12-13T15:27:24.862Z,13.83
2018-12-13T15:29:55.495Z,14.07
2018-12-13T15:32:25.837Z,17.03
2018-12-13T15:34:56.937Z,15.90
2018-12-13T15:37:27.549Z,14.00
2018-12-13T15:39:58.679Z,14.17
2018-12-13T15:42:29.743Z,16.13
2018-12-13T15:45:00.969Z,13.43
2018-12-13T15:47:31.624Z,16.37
2018-12-13T15:50:02.197Z,15.23
2018-12-13T15:52:33.036Z,15.03
2018-12-13T15:55:03.075Z,20.47
2018-12-13T15:57:33.218Z,20.73
2018-12-13T16:00:03.398Z,16.67
2018-12-13T16:02:33.352Z,17.83
2018-12-13T16:05:03.491Z,14.33
2018-12-13T16:07:33.528Z,17.67
2018-12-13T16:10:04.040Z,17.53
2018-12-13T16:12:34.275Z,16.00
2018-12-13T16:15:04.981Z,16.03
2018-12-13T16:17:35.134Z,15.03
2018-12-13T16:20:05.952Z,12.60
2018-12-13T16:22:36.149Z,15.53
2018-12-13T16:25:06.195Z,15.33
2018-12-13T16:27:36.296Z,14.87
2018-12-13T16:30:07.325Z,24.93
2018-12-13T16:32:37.470Z,26.27
2018-12-13T16:35:07.559Z,33.83
2018-12-13T16:37:37.888Z,41.13
2018-12-13T16:40:10.448Z,42.43
2018-12-13T16:42:40.449Z,39.30
2018-12-13T16:45:10.649Z,40.67
2018-12-13T16:47:40.729Z,44.20
2018-12-13T16:50:10.797Z,39.77
2018-12-13T16:52:40.788Z,44.60
2018-12-13T16:55:10.681Z,50.83
2018-12-13T16:57:40.775Z,48.73
2018-12-13T17:00:10.849Z,47.83
2018-12-13T17:02:40.954Z,50.83
2018-12-13T17:05:11.137Z,57.73
2018-12-13T17:07:41.114Z,57.37
2018-12-13T17:10:16.556Z,50.00
2018-12-13T17:12:43.464Z,50.20
2018-12-13T17:15:13.614Z,54.97
2018-12-13T17:17:43.719Z,51.07
2018-12-13T17:20:13.946Z,52.00
2018-12-13T17:22:43.986Z,49.27
2018-12-13T17:25:13.834Z,43.30
2018-12-13T17:27:43.902Z,39.10
2018-12-13T17:30:13.933Z,46.20
2018-12-13T17:32:44.002Z,44.63
2018-12-13T17:35:14.156Z,44.17
2018-12-13T17:37:44.201Z,43.53
2018-12-13T17:40:14.306Z,41.13
2018-12-13T17:42:44.419Z,45.17
2018-12-13T17:45:14.419Z,43.70
2018-12-13T17:47:44.352Z,35.97
2018-12-13T17:50:14.298Z,35.57
2018-12-13T17:52:44.393Z,37.87
2018-12-13T17:55:14.332Z,32.87
2018-12-13T17:57:44.230Z,33.47
2018-12-13T18:00:14.944Z,34.03
2018-12-13T18:02:44.799Z,35.23
2018-12-13T18:05:14.727Z,37.40
2018-12-13T18:07:44.752Z,29.33
2018-12-13T18:10:14.783Z,28.07
2018-12-13T18:12:44.937Z,30.83
2018-12-13T18:15:15.964Z,32.43
2018-12-13T18:17:46.159Z,30.50
2018-12-13T18:20:16.184Z,26.60
2018-12-13T18:22:46.466Z,26.57
2018-12-13T18:25:16.291Z,23.93
2018-12-13T18:27:46.686Z,23.13
2018-12-13T18:30:17.413Z,21.07
2018-12-13T18:32:48.155Z,21.90
2018-12-13T18:35:18.661Z,21.53
2018-12-13T18:37:49.231Z,23.77
2018-12-13T18:40:20.414Z,25.30
2018-12-13T18:42:50.366Z,28.03
2018-12-13T18:45:24.171Z,29.23
2018-12-13T18:47:55.141Z,23.87
2018-12-13T18:50:25.315Z,21.60
2018-12-13T18:52:56.600Z,22.90
2018-12-13T18:55:26.473Z,23.93
2018-12-13T18:57:56.604Z,24.43
2018-12-13T19:00:26.677Z,23.50
2018-12-13T19:02:57.534Z,22.30
2018-12-13T19:05:28.789Z,19.90
2018-12-13T19:07:59.196Z,20.47
2018-12-13T19:10:29.467Z,22.37
2018-12-13T19:12:59.809Z,20.77
2018-12-13T19:15:30.637Z,20.87
2018-12-13T19:18:01.243Z,25.27
2018-12-13T19:20:31.906Z,22.73
2018-12-13T19:23:02.445Z,20.97
2018-12-13T19:25:32.283Z,22.00
2018-12-13T19:28:03.296Z,23.73
2018-12-13T19:30:33.568Z,22.40
2018-12-13T19:33:04.815Z,18.93
2018-12-13T19:35:35.005Z,28.43
2018-12-13T19:38:05.106Z,43.93
2018-12-13T19:40:36.184Z,53.30
2018-12-13T19:43:07.216Z,52.90
2018-12-13T19:45:37.601Z,56.00
2018-12-13T19:48:08.968Z,66.60
2018-12-13T19:50:39.873Z,63.63
2018-12-13T19:53:13.625Z,55.03
2018-12-13T19:55:43.811Z,31.40
2018-12-13T19:58:15.521Z,30.23
2018-12-13T20:00:45.759Z,25.47
2018-12-13T20:03:15.802Z,26.80
2018-12-13T20:05:47.825Z,26.00
2018-12-13T20:08:18.010Z,23.87
2018-12-13T20:10:54.496Z,29.83
2018-12-13T20:13:20.704Z,29.03
2018-12-13T20:15:50.992Z,27.13
2018-12-13T20:18:21.135Z,26.20
2018-12-13T20:20:51.401Z,27.30
2018-12-13T20:23:21.662Z,29.53
2018-12-13T20:25:51.763Z,28.70
2018-12-13T20:28:22.189Z,26.57
2018-12-13T20:30:52.307Z,23.23
2018-12-13T20:33:22.370Z,23.17
2018-12-13T20:35:52.427Z,26.77
2018-12-13T20:38:22.551Z,22.10
2018-12-13T20:40:52.540Z,25.30
2018-12-13T20:43:22.489Z,26.20
2018-12-13T20:45:52.566Z,27.20
2018-12-13T20:48:22.476Z,23.20
2018-12-13T20:50:52.453Z,24.20
2018-12-13T20:53:22.407Z,25.67
2018-12-13T20:55:52.223Z,28.23
2018-12-13T20:58:22.435Z,28.30
2018-12-13T21:00:52.427Z,29.80
2018-12-13T21:03:22.344Z,28.60
2018-12-13T21:05:52.347Z,34.97
2018-12-13T21:08:22.372Z,33.57
2018-12-13T21:10:52.324Z,33.47
2018-12-13T21:13:22.401Z,38.73
2018-12-13T21:15:52.531Z,35.53
2018-12-13T21:18:22.605Z,39.07
2018-12-13T21:20:52.687Z,50.33
2018-12-13T21:23:23.054Z,41.00
2018-12-13T21:25:52.986Z,45.33
2018-12-13T21:28:23.001Z,40.80
2018-12-13T21:30:53.164Z,42.63
2018-12-13T21:33:23.249Z,40.27
2018-12-13T21:35:53.545Z,33.40
2018-12-13T21:38:23.609Z,37.13
2018-12-13T21:40:53.710Z,38.87
2018-12-13T21:43:23.962Z,30.83
2018-12-13T21:45:54.130Z,30.17
2018-12-13T21:48:24.229Z,34.10
2018-12-13T21:50:54.262Z,32.97
2018-12-13T21:53:25.359Z,34.77
2018-12-13T21:55:55.212Z,34.07
2018-12-13T21:58:25.906Z,33.07
2018-12-13T22:00:56.879Z,33.07
2018-12-13T22:03:27.563Z,28.83
2018-12-13T22:05:58.240Z,26.30
2018-12-13T22:08:28.822Z,25.97
2018-12-13T22:10:59.552Z,26.07
2018-12-13T22:13:30.209Z,21.60
2018-12-13T22:16:01.002Z,23.00
2018-12-13T22:18:32.411Z,28.07
2018-12-13T22:21:03.137Z,21.23
2018-12-13T22:23:34.000Z,21.13
2018-12-13T22:26:04.740Z,21.63
2018-12-13T22:28:35.553Z,22.27
2018-12-13T22:31:06.082Z,24.73
2018-12-13T22:33:36.641Z,18.87
2018-12-13T22:36:07.639Z,18.67
2018-12-13T22:38:38.162Z,22.37
2018-12-13T22:41:09.456Z,19.50
2018-12-13T22:43:40.276Z,19.57
2018-12-13T22:46:10.378Z,21.47
2018-12-13T22:48:41.129Z,19.03
2018-12-13T22:51:11.993Z,19.63
2018-12-13T22:53:42.179Z,21.53
2018-12-13T22:56:13.046Z,19.77
2018-12-13T22:58:43.954Z,19.30
2018-12-13T23:01:14.421Z,17.03
2018-12-13T23:03:45.395Z,17.63
2018-12-13T23:06:16.171Z,21.20
2018-12-13T23:08:47.064Z,22.47
2018-12-13T23:11:17.413Z,19.90
2018-12-13T23:13:47.999Z,16.73
2018-12-13T23:16:18.323Z,19.27
2018-12-13T23:18:48.556Z,18.10
2018-12-13T23:21:19.064Z,20.07
2018-12-13T23:23:49.808Z,21.33
2018-12-13T23:26:20.908Z,15.90
2018-12-13T23:28:51.377Z,18.77
2018-12-13T23:31:22.168Z,15.07
2018-12-13T23:33:52.628Z,19.37
2018-12-13T23:36:23.143Z,17.80
2018-12-13T23:38:53.890Z,18.33
2018-12-13T23:41:24.406Z,17.00
2018-12-13T23:43:54.732Z,18.73
2018-12-13T23:46:25.278Z,20.73
2018-12-13T23:48:55.854Z,18.17
2018-12-13T23:51:26.684Z,18.20
2018-12-13T23:53:57.012Z,18.40
2018-12-13T23:56:27.271Z,18.80
2018-12-13T23:58:58.150Z,20.17
